Time;durP1;ratioP1;P1;durP2;ratioP2;P2;SDS_P1;SDS_P2;PMS_P1;PMS_P2;Temp;Humidity;BMP_temperature;BMP_pressure;BME280_temperature;BME280_humidity;BME280_pressure;Samples;Min_cycle;Max_cycle;Signal;HPM_P1;HPM_P2
2023/04/19 00:01:07;;;;;;;0.50;0.50;;;;;;;8.50;45.89;100062.63;4970982;28;20050;-81
2023/04/19 00:03:34;;;;;;;0.50;0.50;;;;;;;8.48;46.15;100071.94;4962732;28;20054;-82
2023/04/19 00:06:02;;;;;;;0.50;0.50;;;;;;;8.42;46.43;100066.34;4937670;29;20135;-81
2023/04/19 00:08:30;;;;;;;0.50;0.50;;;;;;;8.38;46.29;100061.53;4955349;29;20059;-81
2023/04/19 00:10:57;;;;;;;0.50;0.50;;;;;;;8.39;46.24;100063.22;4936699;29;20127;-82
2023/04/19 00:13:24;;;;;;;0.60;0.60;;;;;;;8.38;46.16;100064.22;4935900;29;20051;-81
2023/04/19 00:15:51;;;;;;;0.52;0.52;;;;;;;8.36;46.39;100058.25;4934536;29;20430;-80
2023/04/19 00:18:18;;;;;;;0.50;0.50;;;;;;;8.33;46.66;100058.63;4907777;29;20505;-80
2023/04/19 00:20:47;;;;;;;0.60;0.60;;;;;;;8.29;46.50;100057.41;4954876;29;20110;-80
2023/04/19 00:23:14;;;;;;;0.50;0.50;;;;;;;8.29;46.57;100060.09;4954774;29;20051;-81
2023/04/19 00:25:41;;;;;;;0.52;0.52;;;;;;;8.25;46.69;100070.41;4954801;29;20668;-82
2023/04/19 00:28:08;;;;;;;0.60;0.60;;;;;;;8.21;47.03;100064.63;4955288;29;20058;-81
2023/04/19 00:31:00;;;;;;;0.60;0.60;;;;;;;8.24;46.88;100066.88;4937719;29;20051;-82
2023/04/19 00:33:30;;;;;;;0.60;0.60;;;;;;;8.19;46.90;100074.75;4954858;29;20423;-82
2023/04/19 00:35:57;;;;;;;0.57;0.57;;;;;;;8.20;47.01;100075.56;4954420;29;20054;-81
2023/04/19 00:38:24;;;;;;;0.60;0.60;;;;;;;8.18;46.94;100070.41;4937756;29;20094;-81
2023/04/19 00:40:51;;;;;;;0.50;0.50;;;;;;;8.20;46.93;100070.19;4954301;29;20051;-81
2023/04/19 00:43:18;;;;;;;0.50;0.50;;;;;;;8.21;46.98;100072.69;4969544;28;20051;-81
2023/04/19 00:45:47;;;;;;;0.50;0.50;;;;;;;8.18;46.93;100075.78;4956805;28;20580;-81
2023/04/19 00:48:14;;;;;;;0.50;0.50;;;;;;;8.22;47.02;100076.19;4941065;28;20042;-80
2023/04/19 00:50:43;;;;;;;0.50;0.50;;;;;;;8.23;46.99;100076.00;4973989;28;20689;-82
2023/04/19 00:53:10;;;;;;;0.50;0.50;;;;;;;8.21;46.74;100072.69;4957183;28;20057;-82
2023/04/19 00:55:38;;;;;;;0.60;0.60;;;;;;;8.20;46.93;100073.72;4973951;28;20057;-81
2023/04/19 00:58:07;;;;;;;0.60;0.60;;;;;;;8.20;47.00;100076.41;4973534;28;20050;-81
2023/04/19 01:00:35;;;;;;;0.57;0.57;;;;;;;8.19;47.16;100080.13;4956103;28;20146;-81
2023/04/19 01:03:03;;;;;;;0.50;0.50;;;;;;;8.17;47.08;100076.78;4965985;28;20086;-81
2023/04/19 01:05:30;;;;;;;0.60;0.60;;;;;;;8.15;47.24;100076.19;4953970;29;20053;-81
2023/04/19 01:07:57;;;;;;;0.57;0.57;;;;;;;8.13;47.23;100072.06;4936760;29;20142;-81
2023/04/19 01:10:26;;;;;;;0.50;0.50;;;;;;;8.12;47.42;100081.94;4933658;29;20052;-81
2023/04/19 01:12:55;;;;;;;0.60;0.60;;;;;;;8.04;47.43;100076.75;4936656;29;20415;-82
2023/04/19 01:15:22;;;;;;;0.55;0.55;;;;;;;8.02;47.55;100078.81;4945727;29;20059;-81
2023/04/19 01:17:49;;;;;;;0.50;0.50;;;;;;;7.96;47.76;100079.63;4953666;29;20070;-81
2023/04/19 01:20:17;;;;;;;0.60;0.60;;;;;;;7.90;47.79;100083.97;4920776;29;20051;-82
2023/04/19 01:22:44;;;;;;;0.60;0.60;;;;;;;7.86;47.72;100081.88;4936309;29;20058;-80
2023/04/19 01:25:12;;;;;;;0.60;0.60;;;;;;;7.84;47.62;100081.25;4953610;29;20047;-82
2023/04/19 01:27:43;;;;;;;0.60;0.60;;;;;;;7.80;47.94;100081.66;4936532;29;20055;-82
2023/04/19 01:30:10;;;;;;;0.50;0.50;;;;;;;7.81;48.08;100082.47;4953792;29;20106;-81
2023/04/19 01:32:37;;;;;;;0.57;0.57;;;;;;;7.85;48.00;100083.75;4936725;29;20079;-82
2023/04/19 01:35:05;;;;;;;0.60;0.60;;;;;;;7.85;47.76;100081.06;4953261;29;20518;-82
2023/04/19 01:37:35;;;;;;;0.52;0.52;;;;;;;7.87;47.79;100087.03;4936010;29;20063;-81
2023/04/19 01:40:07;;;;;;;0.50;0.50;;;;;;;7.86;47.87;100079.19;4955127;28;20055;-81
2023/04/19 01:42:35;;;;;;;0.60;0.60;;;;;;;7.84;47.71;100082.06;4939931;28;20051;-81
2023/04/19 01:45:03;;;;;;;0.60;0.60;;;;;;;7.83;47.78;100091.16;4972381;28;20528;-81
2023/04/19 01:47:31;;;;;;;0.60;0.60;;;;;;;7.81;47.77;100094.03;4972770;28;20493;-81
2023/04/19 01:49:58;;;;;;;0.50;0.50;;;;;;;7.75;47.92;100088.66;4972700;28;20074;-82
2023/04/19 01:52:25;;;;;;;0.50;0.50;;;;;;;7.69;47.97;100076.81;4957663;28;20465;-82
2023/04/19 01:54:52;;;;;;;0.60;0.60;;;;;;;7.63;48.10;100074.94;4973351;28;20115;-82
2023/04/19 01:57:19;;;;;;;0.60;0.60;;;;;;;7.58;48.08;100078.22;4972556;28;20510;-81
2023/04/19 01:59:46;;;;;;;0.57;0.57;;;;;;;7.53;48.09;100083.38;4954973;28;20050;-81
2023/04/19 02:02:13;;;;;;;0.60;0.60;;;;;;;7.48;48.37;100082.31;4954631;28;20051;-82
2023/04/19 02:04:41;;;;;;;0.60;0.60;;;;;;;7.41;48.26;100076.06;4937189;29;20043;-82
2023/04/19 02:07:08;;;;;;;0.60;0.60;;;;;;;7.39;48.31;100076.25;4953805;29;20047;-82
2023/04/19 02:09:36;;;;;;;0.60;0.60;;;;;;;7.39;48.28;100076.25;4932433;29;20099;-82
2023/04/19 02:12:04;;;;;;;0.60;0.60;;;;;;;7.38;48.34;100074.59;4931173;29;20079;-82
2023/04/19 02:14:31;;;;;;;0.50;0.50;;;;;;;7.34;48.36;100076.88;4952838;29;20074;-82
2023/04/19 02:16:59;;;;;;;0.60;0.60;;;;;;;7.32;48.30;100089.66;4919547;29;20051;-82
2023/04/19 02:19:28;;;;;;;0.57;0.57;;;;;;;7.28;48.54;100083.00;4935593;29;20127;-81
2023/04/19 02:21:56;;;;;;;0.57;0.57;;;;;;;7.26;48.71;100079.69;4935575;29;20122;-81
2023/04/19 02:24:24;;;;;;;0.50;0.50;;;;;;;7.23;48.71;100085.44;4952481;28;20070;-80
2023/04/19 02:26:51;;;;;;;0.60;0.60;;;;;;;7.20;48.59;100080.47;4919685;29;20054;-81
2023/04/19 02:29:19;;;;;;;0.50;0.50;;;;;;;7.14;48.79;100086.63;4935803;29;20086;-81
2023/04/19 02:31:47;;;;;;;0.60;0.60;;;;;;;7.11;48.78;100084.31;4953758;29;20057;-81
2023/04/19 02:34:14;;;;;;;0.60;0.60;;;;;;;7.10;48.75;100086.19;4943669;28;20074;-82
2023/04/19 02:36:42;;;;;;;0.60;0.60;;;;;;;7.07;48.97;100086.59;4977962;28;20051;-81
2023/04/19 02:39:09;;;;;;;0.60;0.60;;;;;;;7.07;48.84;100086.59;4976934;28;20465;-81
2023/04/19 02:41:37;;;;;;;0.60;0.60;;;;;;;7.04;48.84;100086.97;4955942;28;20506;-82
2023/04/19 02:44:04;;;;;;;0.63;0.63;;;;;;;7.05;48.92;100094.00;4973309;28;20493;-80
2023/04/19 02:46:33;;;;;;;0.60;0.60;;;;;;;7.01;48.84;100086.53;4955278;28;20191;-82
2023/04/19 02:49:00;;;;;;;0.60;0.60;;;;;;;7.03;48.93;100089.84;4972639;28;20047;-82
2023/04/19 02:51:30;;;;;;;0.60;0.60;;;;;;;7.04;48.93;100099.53;4956363;28;20522;-82
2023/04/19 02:53:58;;;;;;;0.70;0.70;;;;;;;7.05;48.67;100091.31;4955568;28;20043;-81
2023/04/19 02:56:25;;;;;;;0.60;0.60;;;;;;;7.07;48.72;100099.19;4954651;28;20074;-82
2023/04/19 02:58:53;;;;;;;0.60;0.60;;;;;;;7.05;48.84;100088.63;4954073;28;20066;-81
2023/04/19 03:01:22;;;;;;;0.60;0.60;;;;;;;7.04;48.75;100099.53;4971539;28;20062;-82
2023/04/19 03:03:52;;;;;;;0.60;0.60;;;;;;;7.04;48.63;100091.50;4940748;29;20049;-81
2023/04/19 03:06:20;;;;;;;0.60;0.60;;;;;;;7.07;48.83;100091.94;4967070;28;20532;-80
2023/04/19 03:08:47;;;;;;;0.60;0.60;;;;;;;7.14;48.52;100095.53;4951050;29;20143;-81
2023/04/19 03:11:17;;;;;;;0.60;0.60;;;;;;;7.15;48.62;100090.97;4916105;29;20055;-82
2023/04/19 03:13:48;;;;;;;0.65;0.65;;;;;;;7.22;48.33;100099.91;4916054;29;20051;-82
2023/04/19 03:16:16;;;;;;;0.70;0.70;;;;;;;7.24;48.44;100103.25;4932801;29;20147;-81
2023/04/19 03:18:48;;;;;;;0.60;0.60;;;;;;;7.26;48.44;100101.16;4900282;29;20051;-81
2023/04/19 03:21:20;;;;;;;0.65;0.65;;;;;;;7.28;48.42;100098.28;4916132;29;20051;-81
2023/04/19 03:23:53;;;;;;;0.60;0.60;;;;;;;7.33;48.40;100087.78;4934757;29;20101;-81
2023/04/19 03:26:21;;;;;;;0.60;0.60;;;;;;;7.42;48.02;100093.81;4918511;29;20052;-81
2023/04/19 03:28:51;;;;;;;0.60;0.60;;;;;;;7.42;47.92;100083.94;4915572;29;20051;-81
2023/04/19 03:31:45;;;;;;;0.60;0.60;;;;;;;7.50;47.90;100097.19;4954942;28;20051;-82
2023/04/19 03:34:13;;;;;;;0.60;0.60;;;;;;;7.57;47.83;100100.75;4922342;28;20069;-81
2023/04/19 03:36:44;;;;;;;0.70;0.70;;;;;;;7.64;47.85;100100.78;4954025;28;20794;-81
2023/04/19 03:39:20;;;;;;;0.60;0.60;;;;;;;7.73;47.60;100107.66;4957836;28;20141;-81
2023/04/19 03:41:52;;;;;;;0.70;0.70;;;;;;;7.69;47.46;100092.13;4941323;28;20240;-82
2023/04/19 03:44:34;;;;;;;0.63;0.63;;;;;;;7.74;47.35;100103.09;4957429;28;20054;-83
2023/04/19 03:47:04;;;;;;;0.60;0.60;;;;;;;7.85;47.47;100107.94;4957885;28;20430;-82
2023/04/19 03:49:38;;;;;;;0.70;0.70;;;;;;;7.94;47.13;100105.88;4958695;28;20109;-82
2023/04/19 03:52:06;;;;;;;0.68;0.68;;;;;;;8.05;46.90;100105.28;4957840;28;20789;-81
2023/04/19 03:54:33;;;;;;;0.70;0.70;;;;;;;8.09;46.73;100105.75;4937042;29;20062;-83
2023/04/19 03:57:03;;;;;;;0.70;0.70;;;;;;;8.16;46.86;100109.28;4926971;29;20076;-82
2023/04/19 03:59:32;;;;;;;0.60;0.60;;;;;;;8.26;46.51;100104.34;4919254;29;20103;-83
2023/04/19 04:01:59;;;;;;;0.60;0.60;;;;;;;8.36;46.34;100114.72;4922646;29;20120;-82
2023/04/19 04:04:26;;;;;;;0.60;0.60;;;;;;;8.43;46.21;100110.19;4947339;28;20089;-82
2023/04/19 04:06:54;;;;;;;0.70;0.70;;;;;;;8.48;46.02;100105.03;4918750;29;20075;-80
2023/04/19 04:09:21;;;;;;;0.60;0.60;;;;;;;8.59;46.03;100117.09;4940498;28;20061;-82
2023/04/19 04:11:49;;;;;;;0.60;0.60;;;;;;;8.65;45.64;100116.25;4948391;28;20495;-83
2023/04/19 04:14:16;;;;;;;0.60;0.60;;;;;;;8.75;45.61;100113.16;4936000;29;20055;-82
2023/04/19 04:16:45;;;;;;;0.60;0.60;;;;;;;8.86;45.43;100117.94;4931661;29;20075;-81
2023/04/19 04:19:15;;;;;;;0.60;0.60;;;;;;;8.94;45.20;100106.97;4940195;29;20498;-82
2023/04/19 04:21:42;;;;;;;0.68;0.68;;;;;;;9.04;44.83;100110.09;4950718;29;20051;-83
2023/04/19 04:24:10;;;;;;;0.60;0.60;;;;;;;9.11;44.72;100110.06;4950463;28;20043;-83
2023/04/19 04:26:44;;;;;;;0.60;0.60;;;;;;;9.21;44.43;100120.41;4946904;28;20070;-82
2023/04/19 04:29:21;;;;;;;0.60;0.60;;;;;;;9.28;44.48;100115.84;4925578;28;20052;-81
2023/04/19 04:31:51;;;;;;;0.60;0.60;;;;;;;9.39;44.27;100111.69;4933971;29;20497;-86
2023/04/19 04:34:23;;;;;;;0.60;0.60;;;;;;;9.46;43.95;100113.34;4941614;29;20063;-84
2023/04/19 04:36:58;;;;;;;0.60;0.60;;;;;;;9.54;43.65;100112.28;4937371;29;20055;-81
2023/04/19 04:39:25;;;;;;;0.60;0.60;;;;;;;9.61;43.56;100109.59;4937225;29;20054;-84
2023/04/19 04:41:52;;;;;;;0.60;0.60;;;;;;;9.72;43.34;100115.16;4921421;29;20807;-84
2023/04/19 04:44:19;;;;;;;0.60;0.60;;;;;;;9.80;43.05;100107.84;4921405;29;20142;-81
2023/04/19 04:46:47;;;;;;;0.60;0.60;;;;;;;9.83;43.10;100119.06;4922900;29;20058;-83
2023/04/19 04:49:23;;;;;;;0.65;0.65;;;;;;;9.92;43.19;100119.66;4929256;29;20058;-84
2023/04/19 04:51:50;;;;;;;0.60;0.60;;;;;;;9.99;42.79;100123.16;4934977;29;20075;-82
2023/04/19 04:54:22;;;;;;;0.60;0.60;;;;;;;9.95;42.76;100117.38;4918178;29;20043;-84
2023/04/19 04:56:49;;;;;;;0.50;0.50;;;;;;;9.90;42.94;100121.72;4929365;29;20059;-84
2023/04/19 04:59:17;;;;;;;0.60;0.60;;;;;;;10.01;42.95;100117.56;4944148;29;20078;-86
2023/04/19 05:01:48;;;;;;;0.60;0.60;;;;;;;10.07;42.67;100130.16;4887612;29;20055;-81
2023/04/19 05:04:18;;;;;;;0.60;0.60;;;;;;;10.12;42.64;100119.56;4936360;29;20093;-83
2023/04/19 05:06:45;;;;;;;0.60;0.60;;;;;;;10.26;42.53;100117.66;4934524;28;20047;-85
2023/04/19 05:09:18;;;;;;;0.60;0.60;;;;;;;10.45;42.08;100126.69;4925218;29;20047;-81
2023/04/19 05:11:45;;;;;;;0.60;0.60;;;;;;;10.61;41.69;100126.22;4935608;29;20631;-83
2023/04/19 05:14:15;;;;;;;0.50;0.50;;;;;;;10.72;41.22;100133.59;4936735;29;20597;-84
2023/04/19 05:16:42;;;;;;;0.60;0.60;;;;;;;10.82;40.95;100133.94;4936374;29;20051;-83
2023/04/19 05:19:10;;;;;;;0.60;0.60;;;;;;;10.91;40.86;100137.19;4934818;29;20060;-83
2023/04/19 05:21:43;;;;;;;0.60;0.60;;;;;;;11.05;40.58;100137.94;4934719;29;20055;-82
2023/04/19 05:24:12;;;;;;;0.60;0.60;;;;;;;11.10;40.55;100138.09;4928488;29;20043;-80
2023/04/19 05:26:43;;;;;;;0.60;0.60;;;;;;;11.18;40.58;100145.09;4928844;29;20050;-83
2023/04/19 05:29:11;;;;;;;0.60;0.60;;;;;;;11.32;39.99;100140.41;4950953;29;20102;-82
2023/04/19 05:31:50;;;;;;;0.60;0.60;;;;;;;11.36;39.85;100134.34;4923312;29;20047;-81
2023/04/19 05:34:25;;;;;;;0.50;0.50;;;;;;;11.35;39.87;100121.88;4943431;29;20058;-83
2023/04/19 05:36:55;;;;;;;0.60;0.60;;;;;;;11.45;39.81;100133.00;4941498;29;20051;-84
2023/04/19 05:39:22;;;;;;;0.60;0.60;;;;;;;11.55;39.29;100135.22;4931077;29;20055;-84
2023/04/19 05:41:50;;;;;;;0.65;0.65;;;;;;;11.60;39.27;100137.25;4934752;29;20071;-85
2023/04/19 05:44:17;;;;;;;0.60;0.60;;;;;;;11.68;39.15;100142.34;4946697;29;20043;-83
2023/04/19 05:46:44;;;;;;;0.60;0.60;;;;;;;11.79;39.05;100141.59;4920304;29;20055;-84
2023/04/19 05:49:16;;;;;;;0.60;0.60;;;;;;;11.99;38.81;100143.28;4935551;29;20039;-85
2023/04/19 05:52:00;;;;;;;0.60;0.60;;;;;;;12.03;38.83;100147.22;4924746;29;20561;-83
2023/04/19 05:54:49;;;;;;;0.60;0.60;;;;;;;12.10;38.80;100154.19;4914553;29;20056;-84
2023/04/19 05:57:16;;;;;;;0.60;0.60;;;;;;;12.27;37.93;100142.75;4935565;29;20043;-85
2023/04/19 05:59:43;;;;;;;0.60;0.60;;;;;;;12.39;37.52;100154.44;4934019;29;20063;-89
2023/04/19 06:02:18;;;;;;;0.60;0.60;;;;;;;12.63;37.40;100154.53;4917920;28;20126;-85
2023/04/19 06:04:46;;;;;;;0.50;0.50;;;;;;;12.70;37.02;100158.81;4951899;28;20154;-84
2023/04/19 06:07:13;;;;;;;0.50;0.50;;;;;;;12.63;37.11;100163.50;4902788;29;20455;-85
2023/04/19 06:09:58;;;;;;;0.50;0.50;;;;;;;12.64;37.08;100157.03;4923132;29;20085;-84
2023/04/19 06:12:25;;;;;;;0.60;0.60;;;;;;;12.67;36.59;100169.28;4938902;29;20437;-86
2023/04/19 06:14:53;;;;;;;0.60;0.60;;;;;;;12.68;36.49;100165.50;4931617;28;20052;-87
2023/04/19 06:17:23;;;;;;;0.50;0.50;;;;;;;12.73;36.66;100165.66;4930638;29;20123;-87
2023/04/19 06:19:52;;;;;;;0.60;0.60;;;;;;;12.86;36.52;100168.16;4929460;29;20158;-84
2023/04/19 06:22:20;;;;;;;0.52;0.52;;;;;;;13.01;36.61;100176.72;4925248;29;20047;-85
2023/04/19 06:24:47;;;;;;;0.50;0.50;;;;;;;13.15;36.36;100168.34;4918776;29;20056;-86
2023/04/19 06:27:16;;;;;;;0.60;0.60;;;;;;;13.01;36.19;100165.88;4941880;28;20043;-83
2023/04/19 06:29:43;;;;;;;0.52;0.52;;;;;;;13.14;35.89;100172.13;4939603;28;20512;-82
2023/04/19 06:32:10;;;;;;;0.50;0.50;;;;;;;13.14;35.29;100174.81;4951290;28;20128;-83
2023/04/19 06:34:37;;;;;;;0.60;0.60;;;;;;;13.01;35.12;100182.13;4879594;28;1205304;-82
2023/04/19 06:37:06;;;;;;;0.50;0.50;;;;;;;13.06;34.76;100167.84;4936475;29;20102;-87
2023/04/19 06:39:33;;;;;;;0.60;0.60;;;;;;;13.20;34.59;100171.19;4949366;29;20055;-84
2023/04/19 06:42:01;;;;;;;0.50;0.50;;;;;;;13.20;34.36;100165.78;4948149;28;20059;-86
2023/04/19 06:44:31;;;;;;;0.50;0.50;;;;;;;13.36;34.36;100169.72;4921645;28;20078;-85
2023/04/19 06:47:04;;;;;;;0.60;0.60;;;;;;;13.52;33.88;100173.59;4946395;29;20617;-84
2023/04/19 06:49:34;;;;;;;0.50;0.50;;;;;;;13.56;33.34;100161.22;4949750;29;20043;-87
2023/04/19 06:52:01;;;;;;;0.50;0.50;;;;;;;13.47;33.13;100159.91;4950098;29;20047;-86
2023/04/19 06:54:31;;;;;;;0.50;0.50;;;;;;;13.48;33.54;100167.03;4949230;29;20066;-85
2023/04/19 06:56:58;;;;;;;0.50;0.50;;;;;;;13.56;33.37;100174.78;4949435;29;20098;-87
2023/04/19 06:59:27;;;;;;;0.50;0.50;;;;;;;13.58;32.94;100167.25;4949509;29;20458;-86
2023/04/19 07:01:56;;;;;;;0.50;0.50;;;;;;;13.61;32.66;100155.94;4937629;28;20055;-85
2023/04/19 07:04:25;;;;;;;0.50;0.50;;;;;;;13.55;32.92;100167.72;4933692;29;20687;-85
2023/04/19 07:06:53;;;;;;;0.50;0.50;;;;;;;13.62;32.84;100160.28;4596713;28;10000404;-85
2023/04/19 07:09:21;;;;;;;0.55;0.55;;;;;;;13.65;32.44;100160.66;4928979;29;20513;-85
2023/04/19 07:11:50;;;;;;;0.50;0.50;;;;;;;13.67;31.69;100160.38;4909142;29;20048;-84
2023/04/19 07:14:18;;;;;;;0.50;0.50;;;;;;;13.73;31.40;100159.47;4949105;29;20094;-89
2023/04/19 07:16:46;;;;;;;0.50;0.50;;;;;;;13.90;31.44;100153.28;4934186;29;20055;-87
2023/04/19 07:19:21;;;;;;;0.60;0.60;;;;;;;14.05;30.92;100156.34;4950408;28;20070;-89
2023/04/19 07:21:49;;;;;;;0.50;0.50;;;;;;;14.18;30.34;100139.81;4952992;29;20055;-87
2023/04/19 07:24:16;;;;;;;0.50;0.50;;;;;;;13.99;30.17;100160.03;4939509;29;20093;-88
2023/04/19 07:26:43;;;;;;;0.50;0.50;;;;;;;14.09;30.13;100152.09;4957056;29;20059;-86
2023/04/19 07:29:11;;;;;;;0.60;0.60;;;;;;;14.28;30.32;100161.72;4956826;29;20062;-87
2023/04/19 07:31:41;;;;;;;0.60;0.60;;;;;;;14.49;29.94;100154.81;4956851;29;20143;-87
2023/04/19 07:34:11;;;;;;;0.60;0.60;;;;;;;14.57;29.99;100150.91;4956575;29;20478;-85
2023/04/19 07:36:38;;;;;;;0.60;0.60;;;;;;;14.64;29.82;100165.16;4956505;29;20479;-86
2023/04/19 07:39:05;;;;;;;0.60;0.60;;;;;;;14.76;29.35;100151.50;4923440;29;20434;-86
2023/04/19 07:41:32;;;;;;;0.55;0.55;;;;;;;14.82;29.65;100160.59;4939797;29;20139;-87
2023/04/19 07:44:04;;;;;;;0.55;0.55;;;;;;;15.02;29.75;100155.50;4939802;29;20474;-87
2023/04/19 07:46:31;;;;;;;0.60;0.60;;;;;;;15.22;29.37;100160.47;4965685;29;20589;-86
2023/04/19 07:48:58;;;;;;;0.60;0.60;;;;;;;15.39;29.33;100169.47;4955949;29;20121;-87
2023/04/19 07:51:26;;;;;;;0.50;0.50;;;;;;;15.56;29.34;100163.16;4940473;29;20059;-86
2023/04/19 07:53:53;;;;;;;0.60;0.60;;;;;;;15.68;29.13;100146.75;4948446;29;20850;-88
2023/04/19 07:56:21;;;;;;;0.60;0.60;;;;;;;15.75;28.54;100161.03;4962631;29;20058;-86
2023/04/19 07:58:51;;;;;;;0.60;0.60;;;;;;;15.82;28.25;100159.78;4922859;29;20087;-85
2023/04/19 08:01:59;;;;;;;0.50;0.50;;;;;;;16.02;28.11;100161.94;4959511;29;20055;-89
2023/04/19 08:04:27;;;;;;;0.60;0.60;;;;;;;15.99;28.42;100165.16;4939284;29;20062;-88
2023/04/19 08:06:56;;;;;;;0.60;0.60;;;;;;;16.16;27.75;100156.13;4939238;29;20139;-85
2023/04/19 08:09:23;;;;;;;0.52;0.52;;;;;;;16.27;27.53;100157.91;4955701;29;20066;-86
2023/04/19 08:11:52;;;;;;;0.60;0.60;;;;;;;16.54;27.17;100154.41;4956120;29;20403;-87
2023/04/19 08:14:20;;;;;;;0.60;0.60;;;;;;;16.76;27.19;100152.47;4955705;29;20075;-86
2023/04/19 08:17:06;;;;;;;0.60;0.60;;;;;;;17.00;26.88;100160.34;4956320;29;20142;-87
2023/04/19 08:19:51;;;;;;;0.50;0.50;;;;;;;17.33;26.54;100156.53;4965335;28;20070;-87
2023/04/19 08:22:20;;;;;;;0.60;0.60;;;;;;;17.50;26.65;100156.38;4943074;28;20051;-85
2023/04/19 08:24:51;;;;;;;0.50;0.50;;;;;;;17.64;25.85;100148.56;4975546;28;20054;-88
2023/04/19 08:27:18;;;;;;;0.60;0.60;;;;;;;17.80;25.78;100149.47;4933462;29;20051;-84
2023/04/19 08:29:45;;;;;;;0.60;0.60;;;;;;;17.93;25.55;100138.13;4911497;29;20047;-86
2023/04/19 08:32:12;;;;;;;0.50;0.50;;;;;;;18.18;25.81;100145.59;4951718;29;20471;-86
2023/04/19 08:34:43;;;;;;;0.60;0.60;;;;;;;18.36;25.44;100147.84;4937493;29;20086;-85
2023/04/19 08:37:10;;;;;;;0.60;0.60;;;;;;;18.70;25.07;100138.38;4936240;28;20059;-86
2023/04/19 08:39:37;;;;;;;0.50;0.50;;;;;;;18.83;25.10;100146.06;4936196;29;20511;-83
2023/04/19 08:42:10;;;;;;;0.60;0.60;;;;;;;18.54;25.24;100135.59;4932318;29;20143;-85
2023/04/19 08:45:01;;;;;;;0.60;0.60;;;;;;;18.95;24.83;100138.41;4926956;29;20635;-82
2023/04/19 08:47:48;;;;;;;0.50;0.50;;;;;;;19.35;24.26;100141.44;4952561;29;20082;-85
2023/04/19 08:50:30;;;;;;;0.50;0.50;;;;;;;19.01;24.00;100137.31;4951816;29;20043;-83
2023/04/19 08:53:09;;;;;;;0.60;0.60;;;;;;;19.03;24.34;100142.53;4951710;29;20170;-86
2023/04/19 08:55:42;;;;;;;0.60;0.60;;;;;;;19.26;24.24;100127.47;4951090;29;20082;-85
2023/04/19 08:58:31;;;;;;;0.60;0.60;;;;;;;19.43;23.97;100149.91;4951189;29;20660;-84
2023/04/19 09:01:18;;;;;;;0.60;0.60;;;;;;;19.87;23.80;100145.75;4951063;29;20465;-85
2023/04/19 09:04:00;;;;;;;0.60;0.60;;;;;;;19.96;23.45;100137.78;4951306;28;20083;-85
2023/04/19 09:06:48;;;;;;;0.60;0.60;;;;;;;20.17;23.34;100131.13;4921344;29;20043;-84
2023/04/19 09:09:20;;;;;;;0.50;0.50;;;;;;;20.51;23.00;100124.94;4932933;29;20086;-85
2023/04/19 09:11:51;;;;;;;0.60;0.60;;;;;;;20.70;23.04;100131.41;4928405;29;20102;-84
2023/04/19 09:14:21;;;;;;;0.60;0.60;;;;;;;20.89;22.81;100137.03;4944964;29;20138;-82
2023/04/19 09:16:52;;;;;;;0.60;0.60;;;;;;;20.80;22.65;100124.22;4591967;28;10000037;-82
2023/04/19 09:19:20;;;;;;;0.50;0.50;;;;;;;20.69;23.18;100127.03;4932264;29;20470;-83
2023/04/19 09:21:52;;;;;;;0.60;0.60;;;;;;;20.88;23.09;100121.66;4924659;28;20062;-82
2023/04/19 09:24:38;;;;;;;0.60;0.60;;;;;;;21.07;22.63;100132.78;4950765;28;20058;-82
2023/04/19 09:27:10;;;;;;;0.60;0.60;;;;;;;21.29;22.24;100118.59;4931903;29;20043;-83
2023/04/19 09:29:52;;;;;;;0.60;0.60;;;;;;;21.81;21.91;100114.25;4934150;29;20453;-84
2023/04/19 09:32:22;;;;;;;0.60;0.60;;;;;;;21.93;21.51;100097.34;4957266;29;20047;-83
2023/04/19 09:34:59;;;;;;;0.57;0.57;;;;;;;21.97;21.48;100103.88;4935602;28;20069;-83
2023/04/19 09:37:29;;;;;;;0.50;0.50;;;;;;;21.88;21.70;100099.31;4953303;29;20057;-83
2023/04/19 09:40:23;;;;;;;0.60;0.60;;;;;;;21.49;22.01;100103.06;4922944;29;20051;-82
2023/04/19 09:42:51;;;;;;;0.50;0.50;;;;;;;21.81;21.37;100113.44;4933417;29;20056;-85
2023/04/19 09:45:21;;;;;;;0.55;0.55;;;;;;;21.94;21.72;100106.41;4940939;29;20111;-83
2023/04/19 09:48:14;;;;;;;0.50;0.50;;;;;;;22.11;21.13;100104.00;4940844;28;20509;-82
2023/04/19 09:50:55;;;;;;;0.60;0.60;;;;;;;22.50;20.58;100106.50;4935652;29;20134;-81
2023/04/19 09:53:35;;;;;;;0.60;0.60;;;;;;;22.89;20.50;100105.38;4932920;29;20153;-81
2023/04/19 09:56:11;;;;;;;0.50;0.50;;;;;;;23.40;20.11;100095.47;5094960;27;1385514;-83
2023/04/19 09:58:40;;;;;;;0.50;0.50;;;;;;;23.46;20.16;100101.69;5112434;28;20047;-84
2023/04/19 10:01:19;;;;;;;0.50;0.50;;;;;;;23.84;19.12;100096.84;5120098;28;20063;-83
2023/04/19 10:03:48;;;;;;;0.50;0.50;;;;;;;24.23;18.80;100093.53;5126161;28;20089;-83
2023/04/19 10:06:17;;;;;;;0.50;0.50;;;;;;;24.05;18.76;100094.47;5104600;28;20090;-83
2023/04/19 10:08:50;;;;;;;0.50;0.50;;;;;;;23.79;18.93;100094.19;5108968;28;20081;-86
2023/04/19 10:11:25;;;;;;;0.50;0.50;;;;;;;24.04;19.10;100083.75;5117989;27;20047;-82
2023/04/19 10:13:55;;;;;;;0.50;0.50;;;;;;;24.61;18.70;100090.50;5123400;28;20044;-83
2023/04/19 10:16:22;;;;;;;0.40;0.40;;;;;;;24.83;18.53;100099.94;5108130;28;20051;-82
2023/04/19 10:18:51;;;;;;;0.60;0.60;;;;;;;24.33;18.79;100091.66;5129309;22;20444;-84
2023/04/19 10:21:19;;;;;;;0.50;0.50;;;;;;;24.12;18.84;100083.03;5084995;28;20146;-84
2023/04/19 10:23:47;;;;;;;0.60;0.60;;;;;;;23.48;19.37;100083.72;5057270;28;20084;-83
2023/04/19 10:26:15;;;;;;;0.50;0.50;;;;;;;23.69;19.36;100092.41;5084902;28;20046;-84
2023/04/19 10:28:42;;;;;;;0.50;0.50;;;;;;;24.08;18.95;100096.63;5100490;28;20578;-83
2023/04/19 10:31:14;;;;;;;0.50;0.50;;;;;;;24.15;18.89;100080.47;5088400;28;20048;-83
2023/04/19 10:33:42;;;;;;;0.40;0.40;;;;;;;24.52;18.78;100078.56;5087541;28;20052;-82
2023/04/19 10:36:17;;;;;;;0.50;0.50;;;;;;;24.83;18.36;100075.88;5038099;28;20052;-83
2023/04/19 10:38:46;;;;;;;0.50;0.50;;;;;;;24.25;18.61;100078.63;5086927;28;20044;-85
2023/04/19 10:41:15;;;;;;;0.57;0.57;;;;;;;24.26;18.51;100080.22;5087380;28;20622;-83
2023/04/19 10:43:45;;;;;;;0.50;0.50;;;;;;;24.79;18.59;100079.63;5086834;28;20048;-84
2023/04/19 10:46:23;;;;;;;0.50;0.50;;;;;;;24.72;18.30;100077.28;5087275;28;20418;-85
2023/04/19 10:48:57;;;;;;;0.50;0.50;;;;;;;25.08;17.66;100088.25;5087092;28;20052;-84
2023/04/19 10:51:31;;;;;;;0.50;0.50;;;;;;;25.24;17.84;100076.81;5087018;28;20067;-84
2023/04/19 10:54:03;;;;;;;0.50;0.50;;;;;;;25.13;17.94;100086.50;5069412;28;20048;-86
2023/04/19 10:56:33;;;;;;;0.50;0.50;;;;;;;25.17;17.72;100074.53;5070049;28;20079;-86
2023/04/19 10:59:06;;;;;;;0.50;0.50;;;;;;;25.08;17.74;100073.63;5087883;28;20045;-87
2023/04/19 11:01:44;;;;;;;0.50;0.50;;;;;;;24.88;18.21;100066.66;5084981;28;20094;-89
2023/04/19 11:04:15;;;;;;;0.50;0.50;;;;;;;24.67;18.13;100065.56;5083955;28;20052;-86
2023/04/19 11:06:52;;;;;;;0.50;0.50;;;;;;;24.73;18.24;100070.63;5074740;28;20044;-86
2023/04/19 11:09:23;;;;;;;0.50;0.50;;;;;;;24.71;18.17;100052.75;5052066;28;20044;-86
2023/04/19 11:11:53;;;;;;;0.50;0.50;;;;;;;25.16;18.10;100049.94;5070313;28;20086;-85
2023/04/19 11:14:23;;;;;;;0.40;0.40;;;;;;;24.68;18.30;100062.47;5069969;28;20053;-86
2023/04/19 11:16:50;;;;;;;0.50;0.50;;;;;;;24.50;18.24;100053.22;5071601;28;20441;-85
2023/04/19 11:19:20;;;;;;;0.50;0.50;;;;;;;24.75;18.36;100053.75;5061712;28;20083;-87
2023/04/19 11:21:48;;;;;;;0.50;0.50;;;;;;;25.55;17.47;100059.41;5018780;28;20072;-85
2023/04/19 11:24:17;;;;;;;0.40;0.40;;;;;;;26.38;16.53;100043.72;5066798;28;20055;-87
2023/04/19 11:26:46;;;;;;;0.47;0.47;;;;;;;26.97;16.40;100053.47;5049579;28;20049;-88
2023/04/19 11:29:14;;;;;;;0.50;0.50;;;;;;;26.91;16.68;100050.03;5045696;28;20049;-86
2023/04/19 11:31:45;;;;;;;0.40;0.40;;;;;;;27.09;16.39;100048.03;5052847;28;20098;-89
2023/04/19 11:34:15;;;;;;;0.40;0.40;;;;;;;27.05;16.34;100036.00;5031335;28;20040;-85
2023/04/19 11:36:50;;;;;;;0.40;0.40;;;;;;;27.39;16.21;100031.50;5026747;28;20135;-85
2023/04/19 11:39:20;;;;;;;0.40;0.40;;;;;;;27.35;16.16;100041.66;5067057;28;20072;-86
2023/04/19 11:41:47;;;;;;;0.40;0.40;;;;;;;26.74;16.52;100028.75;5045791;28;20055;-86
2023/04/19 11:44:21;;;;;;;0.50;0.50;;;;;;;26.93;16.23;100035.88;5055058;28;20807;-85